sensor_id;sensor_type;location;lat;lon;timestamp;pressure;altitude;pressure_sealevel;temperature;humidity
74561;BME280;62979;55.720;37.606;2023-08-24T00:00:42;99216.66;;;18.73;63.27
74561;BME280;62979;55.720;37.606;2023-08-24T00:03:09;99222.97;;;18.85;62.94
74561;BME280;62979;55.720;37.606;2023-08-24T00:05:36;99226.91;;;18.92;62.95
74561;BME280;62979;55.720;37.606;2023-08-24T00:08:06;99222.13;;;18.97;62.50
74561;BME280;62979;55.720;37.606;2023-08-24T00:10:34;99240.91;;;18.94;62.76
74561;BME280;62979;55.720;37.606;2023-08-24T00:13:02;99232.09;;;18.93;62.53
74561;BME280;62979;55.720;37.606;2023-08-24T00:15:30;99226.59;;;18.96;62.27
74561;BME280;62979;55.720;37.606;2023-08-24T00:17:57;99243.78;;;19.03;61.95
74561;BME280;62979;55.720;37.606;2023-08-24T00:20:24;99242.66;;;19.08;62.08
74561;BME280;62979;55.720;37.606;2023-08-24T00:22:52;99233.19;;;19.03;62.10
74561;BME280;62979;55.720;37.606;2023-08-24T00:25:20;99246.00;;;18.97;61.68
74561;BME280;62979;55.720;37.606;2023-08-24T00:27:47;99246.25;;;18.79;62.46
74561;BME280;62979;55.720;37.606;2023-08-24T00:30:15;99234.88;;;18.50;62.74
74561;BME280;62979;55.720;37.606;2023-08-24T00:32:42;99241.97;;;18.50;63.03
74561;BME280;62979;55.720;37.606;2023-08-24T00:35:10;99239.13;;;18.53;63.22
74561;BME280;62979;55.720;37.606;2023-08-24T00:37:37;99248.91;;;18.65;62.53
74561;BME280;62979;55.720;37.606;2023-08-24T00:40:06;99248.41;;;18.46;62.77
74561;BME280;62979;55.720;37.606;2023-08-24T00:42:38;99250.69;;;18.37;63.15
74561;BME280;62979;55.720;37.606;2023-08-24T00:45:07;99246.78;;;18.57;62.61
74561;BME280;62979;55.720;37.606;2023-08-24T00:47:36;99248.75;;;18.68;62.12
74561;BME280;62979;55.720;37.606;2023-08-24T00:50:05;99240.44;;;18.60;61.85
74561;BME280;62979;55.720;37.606;2023-08-24T00:52:33;99251.75;;;18.76;61.81
74561;BME280;62979;55.720;37.606;2023-08-24T00:55:04;99258.16;;;18.87;61.47
74561;BME280;62979;55.720;37.606;2023-08-24T00:57:32;99229.31;;;18.82;61.03
74561;BME280;62979;55.720;37.606;2023-08-24T01:00:03;99249.75;;;19.07;60.52
74561;BME280;62979;55.720;37.606;2023-08-24T01:02:33;99247.94;;;19.08;59.91
74561;BME280;62979;55.720;37.606;2023-08-24T01:05:00;99249.94;;;19.04;60.35
74561;BME280;62979;55.720;37.606;2023-08-24T01:07:30;99240.69;;;18.97;59.97
74561;BME280;62979;55.720;37.606;2023-08-24T01:09:57;99250.50;;;18.82;60.41
74561;BME280;62979;55.720;37.606;2023-08-24T01:12:30;99244.78;;;18.61;61.07
74561;BME280;62979;55.720;37.606;2023-08-24T01:15:11;99248.66;;;18.55;61.59
74561;BME280;62979;55.720;37.606;2023-08-24T01:17:43;99242.84;;;18.77;61.18
74561;BME280;62979;55.720;37.606;2023-08-24T01:20:10;99221.47;;;18.80;60.54
74561;BME280;62979;55.720;37.606;2023-08-24T01:22:45;99229.78;;;19.01;60.19
74561;BME280;62979;55.720;37.606;2023-08-24T01:25:24;99239.16;;;19.07;59.88
74561;BME280;62979;55.720;37.606;2023-08-24T01:28:06;99235.97;;;19.15;59.47
74561;BME280;62979;55.720;37.606;2023-08-24T01:30:34;99234.56;;;19.09;59.50
74561;BME280;62979;55.720;37.606;2023-08-24T01:33:03;99224.31;;;19.05;59.76
74561;BME280;62979;55.720;37.606;2023-08-24T01:35:31;99239.78;;;19.11;59.65
74561;BME280;62979;55.720;37.606;2023-08-24T01:37:58;99244.63;;;19.04;59.35
74561;BME280;62979;55.720;37.606;2023-08-24T01:40:38;99249.31;;;19.13;59.43
74561;BME280;62979;55.720;37.606;2023-08-24T01:43:14;99245.75;;;19.14;58.72
74561;BME280;62979;55.720;37.606;2023-08-24T01:45:44;99242.13;;;19.15;59.06
74561;BME280;62979;55.720;37.606;2023-08-24T01:48:13;99256.13;;;19.17;59.20
74561;BME280;62979;55.720;37.606;2023-08-24T01:50:41;99247.13;;;19.20;59.08
74561;BME280;62979;55.720;37.606;2023-08-24T01:53:09;99246.81;;;19.24;58.89
74561;BME280;62979;55.720;37.606;2023-08-24T01:55:36;99246.59;;;19.28;58.79
74561;BME280;62979;55.720;37.606;2023-08-24T01:58:03;99248.09;;;19.32;58.35
74561;BME280;62979;55.720;37.606;2023-08-24T02:00:31;99245.97;;;19.37;58.46
74561;BME280;62979;55.720;37.606;2023-08-24T02:02:58;99247.97;;;19.33;58.57
74561;BME280;62979;55.720;37.606;2023-08-24T02:05:26;99239.50;;;19.28;58.26
74561;BME280;62979;55.720;37.606;2023-08-24T02:07:54;99250.81;;;19.17;58.32
74561;BME280;62979;55.720;37.606;2023-08-24T02:10:22;99240.84;;;19.08;59.05
74561;BME280;62979;55.720;37.606;2023-08-24T02:12:50;99238.78;;;18.99;59.28
74561;BME280;62979;55.720;37.606;2023-08-24T02:15:17;99238.59;;;19.02;59.03
74561;BME280;62979;55.720;37.606;2023-08-24T02:17:46;99242.53;;;19.09;59.29
74561;BME280;62979;55.720;37.606;2023-08-24T02:20:13;99244.47;;;19.20;58.98
74561;BME280;62979;55.720;37.606;2023-08-24T02:22:40;99243.41;;;19.22;58.67
74561;BME280;62979;55.720;37.606;2023-08-24T02:25:09;99240.09;;;19.19;58.82
74561;BME280;62979;55.720;37.606;2023-08-24T02:27:36;99244.91;;;19.27;59.03
74561;BME280;62979;55.720;37.606;2023-08-24T02:30:04;99232.28;;;19.30;58.56
74561;BME280;62979;55.720;37.606;2023-08-24T02:32:32;99246.06;;;19.35;58.51
74561;BME280;62979;55.720;37.606;2023-08-24T02:35:00;99246.72;;;19.39;58.27
74561;BME280;62979;55.720;37.606;2023-08-24T02:37:28;99248.94;;;19.45;58.23
74561;BME280;62979;55.720;37.606;2023-08-24T02:39:55;99249.59;;;19.49;58.02
74561;BME280;62979;55.720;37.606;2023-08-24T02:42:22;99248.19;;;19.43;58.20
74561;BME280;62979;55.720;37.606;2023-08-24T02:44:49;99260.00;;;19.39;58.00
74561;BME280;62979;55.720;37.606;2023-08-24T02:47:16;99250.09;;;19.28;58.70
74561;BME280;62979;55.720;37.606;2023-08-24T02:49:43;99254.88;;;19.36;58.77
74561;BME280;62979;55.720;37.606;2023-08-24T02:52:11;99251.91;;;19.40;58.33
74561;BME280;62979;55.720;37.606;2023-08-24T02:54:38;99240.78;;;19.35;58.45
74561;BME280;62979;55.720;37.606;2023-08-24T02:57:05;99262.97;;;19.47;57.93
74561;BME280;62979;55.720;37.606;2023-08-24T02:59:32;99248.72;;;19.48;58.09
74561;BME280;62979;55.720;37.606;2023-08-24T03:01:59;99245.66;;;19.41;58.05
74561;BME280;62979;55.720;37.606;2023-08-24T03:04:26;99257.13;;;19.42;58.30
74561;BME280;62979;55.720;37.606;2023-08-24T03:06:53;99258.94;;;19.41;58.03
74561;BME280;62979;55.720;37.606;2023-08-24T03:09:22;99255.22;;;19.44;58.15
74561;BME280;62979;55.720;37.606;2023-08-24T03:11:49;99262.13;;;19.46;58.34
74561;BME280;62979;55.720;37.606;2023-08-24T03:14:16;99253.09;;;19.49;57.88
74561;BME280;62979;55.720;37.606;2023-08-24T03:16:44;99266.16;;;19.52;57.95
74561;BME280;62979;55.720;37.606;2023-08-24T03:19:11;99259.56;;;19.58;57.81
74561;BME280;62979;55.720;37.606;2023-08-24T03:21:39;99267.84;;;19.53;58.15
74561;BME280;62979;55.720;37.606;2023-08-24T03:24:06;99260.63;;;19.42;58.11
74561;BME280;62979;55.720;37.606;2023-08-24T03:26:35;99263.19;;;19.44;58.31
74561;BME280;62979;55.720;37.606;2023-08-24T03:29:01;99266.75;;;19.43;58.25
74561;BME280;62979;55.720;37.606;2023-08-24T03:31:28;99267.28;;;19.48;58.17
74561;BME280;62979;55.720;37.606;2023-08-24T03:33:55;99259.56;;;19.45;58.10
74561;BME280;62979;55.720;37.606;2023-08-24T03:36:23;99279.50;;;19.51;58.08
74561;BME280;62979;55.720;37.606;2023-08-24T03:38:49;99275.06;;;19.51;58.19
74561;BME280;62979;55.720;37.606;2023-08-24T03:41:16;99277.50;;;19.54;58.21
74561;BME280;62979;55.720;37.606;2023-08-24T03:43:45;99268.03;;;19.50;57.90
74561;BME280;62979;55.720;37.606;2023-08-24T03:46:12;99270.38;;;19.55;58.17
74561;BME280;62979;55.720;37.606;2023-08-24T03:48:38;99279.09;;;19.57;57.74
74561;BME280;62979;55.720;37.606;2023-08-24T03:51:05;99274.63;;;19.57;57.92
74561;BME280;62979;55.720;37.606;2023-08-24T03:53:32;99286.75;;;19.61;57.83
74561;BME280;62979;55.720;37.606;2023-08-24T03:55:59;99273.69;;;19.58;58.22
74561;BME280;62979;55.720;37.606;2023-08-24T03:58:26;99273.34;;;19.63;57.98
74561;BME280;62979;55.720;37.606;2023-08-24T04:00:55;99278.06;;;19.72;57.81
74561;BME280;62979;55.720;37.606;2023-08-24T04:03:22;99271.06;;;19.71;57.79
74561;BME280;62979;55.720;37.606;2023-08-24T04:05:50;99276.81;;;19.78;57.44
74561;BME280;62979;55.720;37.606;2023-08-24T04:08:17;99273.59;;;19.73;57.74
74561;BME280;62979;55.720;37.606;2023-08-24T04:10:44;99268.69;;;19.66;57.95
74561;BME280;62979;55.720;37.606;2023-08-24T04:13:11;99279.00;;;19.58;58.43
74561;BME280;62979;55.720;37.606;2023-08-24T04:15:38;99278.88;;;19.47;58.88
74561;BME280;62979;55.720;37.606;2023-08-24T04:18:06;99279.50;;;19.38;58.91
74561;BME280;62979;55.720;37.606;2023-08-24T04:20:33;99292.22;;;19.33;59.24
74561;BME280;62979;55.720;37.606;2023-08-24T04:23:01;99274.91;;;19.14;59.89
74561;BME280;62979;55.720;37.606;2023-08-24T04:25:28;99286.59;;;19.24;60.05
74561;BME280;62979;55.720;37.606;2023-08-24T04:27:55;99290.72;;;19.29;60.47
74561;BME280;62979;55.720;37.606;2023-08-24T04:30:22;99298.03;;;19.38;61.16
74561;BME280;62979;55.720;37.606;2023-08-24T04:32:49;99294.16;;;19.56;60.91
74561;BME280;62979;55.720;37.606;2023-08-24T04:35:18;99298.66;;;19.69;60.59
74561;BME280;62979;55.720;37.606;2023-08-24T04:37:45;99305.66;;;19.82;60.53
74561;BME280;62979;55.720;37.606;2023-08-24T04:40:12;99289.97;;;19.79;59.25
74561;BME280;62979;55.720;37.606;2023-08-24T04:42:39;99292.28;;;19.84;59.49
74561;BME280;62979;55.720;37.606;2023-08-24T04:45:07;99294.19;;;19.82;59.03
74561;BME280;62979;55.720;37.606;2023-08-24T04:47:34;99292.00;;;19.76;58.87
74561;BME280;62979;55.720;37.606;2023-08-24T04:50:01;99292.91;;;19.75;58.07
74561;BME280;62979;55.720;37.606;2023-08-24T04:52:31;99294.09;;;19.71;59.26
74561;BME280;62979;55.720;37.606;2023-08-24T04:54:58;99301.84;;;19.74;59.10
74561;BME280;62979;55.720;37.606;2023-08-24T04:57:25;99302.06;;;19.83;58.61
74561;BME280;62979;55.720;37.606;2023-08-24T04:59:52;99295.91;;;19.96;58.35
74561;BME280;62979;55.720;37.606;2023-08-24T05:02:19;99301.19;;;20.08;57.70
74561;BME280;62979;55.720;37.606;2023-08-24T05:04:46;99296.63;;;20.10;57.36
74561;BME280;62979;55.720;37.606;2023-08-24T05:07:13;99304.06;;;20.05;56.95
74561;BME280;62979;55.720;37.606;2023-08-24T05:09:41;99298.53;;;20.08;57.21
74561;BME280;62979;55.720;37.606;2023-08-24T05:12:08;99305.13;;;20.16;56.93
74561;BME280;62979;55.720;37.606;2023-08-24T05:14:35;99300.97;;;20.12;57.23
74561;BME280;62979;55.720;37.606;2023-08-24T05:17:02;99293.34;;;19.94;56.66
74561;BME280;62979;55.720;37.606;2023-08-24T05:19:30;99300.34;;;19.82;57.14
74561;BME280;62979;55.720;37.606;2023-08-24T05:21:57;99297.81;;;19.81;57.63
74561;BME280;62979;55.720;37.606;2023-08-24T05:24:23;99290.16;;;19.89;57.42
74561;BME280;62979;55.720;37.606;2023-08-24T05:26:52;99298.13;;;19.89;56.94
74561;BME280;62979;55.720;37.606;2023-08-24T05:29:19;99306.72;;;19.80;57.26
74561;BME280;62979;55.720;37.606;2023-08-24T05:31:45;99287.44;;;19.78;57.51
74561;BME280;62979;55.720;37.606;2023-08-24T05:34:12;99295.47;;;19.76;57.70
74561;BME280;62979;55.720;37.606;2023-08-24T05:36:39;99285.63;;;19.78;58.01
74561;BME280;62979;55.720;37.606;2023-08-24T05:39:06;99288.13;;;19.67;58.04
74561;BME280;62979;55.720;37.606;2023-08-24T05:41:34;99302.88;;;19.58;58.09
74561;BME280;62979;55.720;37.606;2023-08-24T05:44:03;99300.09;;;19.60;58.46
74561;BME280;62979;55.720;37.606;2023-08-24T05:46:30;99300.94;;;19.60;58.64
74561;BME280;62979;55.720;37.606;2023-08-24T05:48:58;99296.69;;;19.58;58.37
74561;BME280;62979;55.720;37.606;2023-08-24T05:51:25;99298.84;;;19.65;58.33
74561;BME280;62979;55.720;37.606;2023-08-24T05:53:53;99303.97;;;19.69;57.89
74561;BME280;62979;55.720;37.606;2023-08-24T05:56:21;99298.09;;;19.63;57.45
74561;BME280;62979;55.720;37.606;2023-08-24T05:58:49;99303.41;;;19.63;58.26
74561;BME280;62979;55.720;37.606;2023-08-24T06:01:18;99303.13;;;19.41;57.73
74561;BME280;62979;55.720;37.606;2023-08-24T06:03:45;99304.84;;;19.42;58.41
74561;BME280;62979;55.720;37.606;2023-08-24T06:06:12;99306.22;;;19.48;58.29
74561;BME280;62979;55.720;37.606;2023-08-24T06:08:39;99300.19;;;19.45;57.64
74561;BME280;62979;55.720;37.606;2023-08-24T06:11:06;99320.47;;;19.59;57.70
74561;BME280;62979;55.720;37.606;2023-08-24T06:13:33;99312.69;;;19.71;57.47
74561;BME280;62979;55.720;37.606;2023-08-24T06:16:00;99312.31;;;19.62;57.20
74561;BME280;62979;55.720;37.606;2023-08-24T06:18:29;99318.44;;;19.63;56.85
74561;BME280;62979;55.720;37.606;2023-08-24T06:20:56;99319.50;;;19.60;57.00
74561;BME280;62979;55.720;37.606;2023-08-24T06:23:23;99321.56;;;19.70;56.95
74561;BME280;62979;55.720;37.606;2023-08-24T06:25:50;99325.19;;;19.81;56.50
74561;BME280;62979;55.720;37.606;2023-08-24T06:28:17;99326.69;;;19.85;56.36
74561;BME280;62979;55.720;37.606;2023-08-24T06:30:44;99331.56;;;19.92;56.23
74561;BME280;62979;55.720;37.606;2023-08-24T06:33:13;99332.84;;;19.86;55.62
74561;BME280;62979;55.720;37.606;2023-08-24T06:35:41;99342.63;;;19.85;56.49
74561;BME280;62979;55.720;37.606;2023-08-24T06:38:08;99335.28;;;19.76;55.93
74561;BME280;62979;55.720;37.606;2023-08-24T06:40:35;99341.88;;;19.83;56.12
74561;BME280;62979;55.720;37.606;2023-08-24T06:43:02;99337.94;;;19.89;56.03
74561;BME280;62979;55.720;37.606;2023-08-24T06:45:29;99338.59;;;19.93;55.54
74561;BME280;62979;55.720;37.606;2023-08-24T06:47:57;99340.72;;;19.87;55.55
74561;BME280;62979;55.720;37.606;2023-08-24T06:50:24;99347.03;;;19.72;55.61
74561;BME280;62979;55.720;37.606;2023-08-24T06:52:53;99358.91;;;19.66;56.33
74561;BME280;62979;55.720;37.606;2023-08-24T06:55:19;99355.31;;;19.67;55.86
74561;BME280;62979;55.720;37.606;2023-08-24T06:57:48;99364.41;;;19.63;55.92
74561;BME280;62979;55.720;37.606;2023-08-24T07:00:17;99373.50;;;19.46;56.53
74561;BME280;62979;55.720;37.606;2023-08-24T07:02:45;99366.44;;;19.33;56.54
74561;BME280;62979;55.720;37.606;2023-08-24T07:05:13;99372.84;;;19.43;56.75
74561;BME280;62979;55.720;37.606;2023-08-24T07:07:40;99370.19;;;19.43;56.53
74561;BME280;62979;55.720;37.606;2023-08-24T07:10:10;99370.00;;;19.46;56.40
74561;BME280;62979;55.720;37.606;2023-08-24T07:12:37;99376.25;;;19.45;56.44
74561;BME280;62979;55.720;37.606;2023-08-24T07:15:06;99369.03;;;19.47;56.60
74561;BME280;62979;55.720;37.606;2023-08-24T07:17:34;99374.69;;;19.55;56.48
74561;BME280;62979;55.720;37.606;2023-08-24T07:20:02;99378.00;;;19.59;56.28
74561;BME280;62979;55.720;37.606;2023-08-24T07:22:33;99376.59;;;19.53;56.34
74561;BME280;62979;55.720;37.606;2023-08-24T07:25:00;99372.22;;;19.39;56.48
74561;BME280;62979;55.720;37.606;2023-08-24T07:27:31;99381.72;;;19.29;56.92
74561;BME280;62979;55.720;37.606;2023-08-24T07:29:58;99369.41;;;19.28;56.61
74561;BME280;62979;55.720;37.606;2023-08-24T07:32:26;99376.22;;;19.32;56.53
74561;BME280;62979;55.720;37.606;2023-08-24T07:34:53;99372.41;;;19.36;56.46
74561;BME280;62979;55.720;37.606;2023-08-24T07:37:22;99371.97;;;19.30;56.49
74561;BME280;62979;55.720;37.606;2023-08-24T07:39:49;99385.34;;;19.14;57.35
74561;BME280;62979;55.720;37.606;2023-08-24T07:42:19;99377.44;;;18.99;57.50
74561;BME280;62979;55.720;37.606;2023-08-24T07:44:47;99396.06;;;19.12;57.33
74561;BME280;62979;55.720;37.606;2023-08-24T07:47:14;99384.47;;;19.28;57.05
74561;BME280;62979;55.720;37.606;2023-08-24T07:49:41;99391.78;;;19.24;57.29
74561;BME280;62979;55.720;37.606;2023-08-24T07:52:10;99390.78;;;19.12;56.99
74561;BME280;62979;55.720;37.606;2023-08-24T07:54:37;99394.78;;;19.05;57.50
74561;BME280;62979;55.720;37.606;2023-08-24T07:57:04;99379.44;;;18.96;57.62
74561;BME280;62979;55.720;37.606;2023-08-24T07:59:32;99379.44;;;18.96;57.44
74561;BME280;62979;55.720;37.606;2023-08-24T08:02:00;99396.38;;;19.08;57.22
74561;BME280;62979;55.720;37.606;2023-08-24T08:04:27;99396.88;;;19.00;57.18
74561;BME280;62979;55.720;37.606;2023-08-24T08:06:54;99392.47;;;19.13;57.27
74561;BME280;62979;55.720;37.606;2023-08-24T08:09:21;99398.28;;;19.33;56.55
74561;BME280;62979;55.720;37.606;2023-08-24T08:11:48;99396.28;;;19.36;55.87
74561;BME280;62979;55.720;37.606;2023-08-24T08:14:15;99400.16;;;19.31;55.66
74561;BME280;62979;55.720;37.606;2023-08-24T08:16:42;99392.34;;;19.29;56.25
74561;BME280;62979;55.720;37.606;2023-08-24T08:19:10;99377.47;;;19.27;55.62
74561;BME280;62979;55.720;37.606;2023-08-24T08:21:37;99398.56;;;19.28;55.88
74561;BME280;62979;55.720;37.606;2023-08-24T08:24:04;99403.88;;;19.28;56.71
74561;BME280;62979;55.720;37.606;2023-08-24T08:26:31;99397.56;;;19.16;56.45
74561;BME280;62979;55.720;37.606;2023-08-24T08:28:58;99381.66;;;19.16;56.57
74561;BME280;62979;55.720;37.606;2023-08-24T08:31:25;99397.81;;;19.26;56.25
74561;BME280;62979;55.720;37.606;2023-08-24T08:33:51;99402.28;;;19.25;56.72
74561;BME280;62979;55.720;37.606;2023-08-24T08:36:20;99394.03;;;19.30;55.86
74561;BME280;62979;55.720;37.606;2023-08-24T08:38:46;99398.47;;;19.30;55.67
74561;BME280;62979;55.720;37.606;2023-08-24T08:41:14;99390.31;;;19.06;55.65
74561;BME280;62979;55.720;37.606;2023-08-24T08:43:41;99391.81;;;19.10;56.98
74561;BME280;62979;55.720;37.606;2023-08-24T08:46:08;99392.25;;;19.16;55.84
74561;BME280;62979;55.720;37.606;2023-08-24T08:48:38;99404.00;;;19.27;56.59
74561;BME280;62979;55.720;37.606;2023-08-24T08:51:06;99397.94;;;19.24;55.94
74561;BME280;62979;55.720;37.606;2023-08-24T08:53:36;99390.34;;;19.18;56.29
74561;BME280;62979;55.720;37.606;2023-08-24T08:56:03;99405.88;;;19.24;56.70
74561;BME280;62979;55.720;37.606;2023-08-24T08:58:31;99404.25;;;19.36;55.99
74561;BME280;62979;55.720;37.606;2023-08-24T09:01:02;99397.81;;;19.53;55.99
74561;BME280;62979;55.720;37.606;2023-08-24T09:03:31;99396.34;;;19.62;55.01
74561;BME280;62979;55.720;37.606;2023-08-24T09:05:58;99408.97;;;19.58;54.88
74561;BME280;62979;55.720;37.606;2023-08-24T09:08:26;99403.97;;;19.54;55.09
74561;BME280;62979;55.720;37.606;2023-08-24T09:10:55;99407.25;;;19.57;54.64
74561;BME280;62979;55.720;37.606;2023-08-24T09:13:24;99402.25;;;19.53;54.68
74561;BME280;62979;55.720;37.606;2023-08-24T09:15:52;99399.50;;;19.54;55.04
74561;BME280;62979;55.720;37.606;2023-08-24T09:18:19;99405.97;;;19.50;54.37
74561;BME280;62979;55.720;37.606;2023-08-24T09:20:47;99403.22;;;19.52;54.66
74561;BME280;62979;55.720;37.606;2023-08-24T09:23:17;99404.56;;;19.72;54.10
74561;BME280;62979;55.720;37.606;2023-08-24T09:25:46;99409.38;;;19.79;54.06
74561;BME280;62979;55.720;37.606;2023-08-24T09:28:22;99417.97;;;19.83;53.98
74561;BME280;62979;55.720;37.606;2023-08-24T09:30:52;99411.41;;;20.01;53.83
74561;BME280;62979;55.720;37.606;2023-08-24T09:33:21;99410.34;;;19.91;53.94
74561;BME280;62979;55.720;37.606;2023-08-24T09:35:52;99420.97;;;19.91;54.65
74561;BME280;62979;55.720;37.606;2023-08-24T09:38:21;99416.09;;;19.85;54.63
74561;BME280;62979;55.720;37.606;2023-08-24T09:40:51;99412.97;;;19.78;54.90
74561;BME280;62979;55.720;37.606;2023-08-24T09:43:21;99422.41;;;19.70;54.18
74561;BME280;62979;55.720;37.606;2023-08-24T09:45:49;99422.94;;;19.75;54.63
74561;BME280;62979;55.720;37.606;2023-08-24T09:48:17;99420.69;;;19.69;55.41
74561;BME280;62979;55.720;37.606;2023-08-24T09:50:45;99418.59;;;19.74;55.52
74561;BME280;62979;55.720;37.606;2023-08-24T09:53:16;99418.59;;;19.74;54.13
74561;BME280;62979;55.720;37.606;2023-08-24T09:55:49;99409.03;;;19.71;53.87
74561;BME280;62979;55.720;37.606;2023-08-24T09:58:22;99417.31;;;19.79;54.58
74561;BME280;62979;55.720;37.606;2023-08-24T10:00:51;99422.19;;;19.73;53.31
74561;BME280;62979;55.720;37.606;2023-08-24T10:03:19;99418.38;;;19.77;53.99
74561;BME280;62979;55.720;37.606;2023-08-24T10:05:50;99415.66;;;19.91;53.71
74561;BME280;62979;55.720;37.606;2023-08-24T10:08:21;99422.25;;;19.98;53.42
74561;BME280;62979;55.720;37.606;2023-08-24T10:10:55;99418.75;;;20.10;53.09
74561;BME280;62979;55.720;37.606;2023-08-24T10:13:31;99411.31;;;20.16;52.88
74561;BME280;62979;55.720;37.606;2023-08-24T10:16:05;99417.59;;;20.15;52.62
74561;BME280;62979;55.720;37.606;2023-08-24T10:18:36;99421.63;;;20.20;52.30
74561;BME280;62979;55.720;37.606;2023-08-24T10:21:03;99410.59;;;20.26;51.68
74561;BME280;62979;55.720;37.606;2023-08-24T10:23:31;99419.28;;;20.28;51.69
74561;BME280;62979;55.720;37.606;2023-08-24T10:26:02;99417.69;;;20.26;51.09
74561;BME280;62979;55.720;37.606;2023-08-24T10:28:31;99420.66;;;20.08;51.69
74561;BME280;62979;55.720;37.606;2023-08-24T10:30:59;99423.44;;;20.20;52.26
74561;BME280;62979;55.720;37.606;2023-08-24T10:33:29;99415.91;;;20.26;51.74
74561;BME280;62979;55.720;37.606;2023-08-24T10:35:57;99422.16;;;20.25;51.54
74561;BME280;62979;55.720;37.606;2023-08-24T10:38:24;99418.44;;;20.28;51.64
74561;BME280;62979;55.720;37.606;2023-08-24T10:40:53;99415.78;;;20.28;51.68
74561;BME280;62979;55.720;37.606;2023-08-24T10:43:22;99420.88;;;20.31;51.52
74561;BME280;62979;55.720;37.606;2023-08-24T10:45:58;99410.03;;;20.21;51.61
74561;BME280;62979;55.720;37.606;2023-08-24T10:48:27;99423.44;;;20.20;51.79
74561;BME280;62979;55.720;37.606;2023-08-24T10:51:18;99413.97;;;20.16;52.13
74561;BME280;62979;55.720;37.606;2023-08-24T10:53:52;99422.69;;;20.18;51.52
74561;BME280;62979;55.720;37.606;2023-08-24T10:56:20;99421.00;;;20.17;51.46
74561;BME280;62979;55.720;37.606;2023-08-24T10:59:10;99427.56;;;20.24;51.11
74561;BME280;62979;55.720;37.606;2023-08-24T11:01:40;99419.81;;;20.34;51.08
74561;BME280;62979;55.720;37.606;2023-08-24T11:04:08;99429.06;;;20.28;50.48
74561;BME280;62979;55.720;37.606;2023-08-24T11:06:51;99428.13;;;20.29;50.79
74561;BME280;62979;55.720;37.606;2023-08-24T11:09:19;99430.44;;;20.34;50.46
74561;BME280;62979;55.720;37.606;2023-08-24T11:11:56;99428.66;;;20.34;50.95
74561;BME280;62979;55.720;37.606;2023-08-24T11:14:25;99423.13;;;20.37;50.97
74561;BME280;62979;55.720;37.606;2023-08-24T11:16:57;99424.72;;;20.27;50.30
74561;BME280;62979;55.720;37.606;2023-08-24T11:19:25;99425.47;;;20.29;50.88
74561;BME280;62979;55.720;37.606;2023-08-24T11:21:53;99424.28;;;20.33;51.02
74561;BME280;62979;55.720;37.606;2023-08-24T11:24:20;99431.09;;;20.37;49.96
74561;BME280;62979;55.720;37.606;2023-08-24T11:26:48;99421.63;;;20.33;50.76
74561;BME280;62979;55.720;37.606;2023-08-24T11:29:15;99423.13;;;20.24;50.75
74561;BME280;62979;55.720;37.606;2023-08-24T11:31:44;99421.53;;;20.22;50.77
74561;BME280;62979;55.720;37.606;2023-08-24T11:34:14;99427.38;;;20.27;50.79
74561;BME280;62979;55.720;37.606;2023-08-24T11:36:42;99423.44;;;20.33;50.49
74561;BME280;62979;55.720;37.606;2023-08-24T11:39:15;99435.97;;;20.30;49.70
74561;BME280;62979;55.720;37.606;2023-08-24T11:41:45;99424.50;;;20.30;50.02
74561;BME280;62979;55.720;37.606;2023-08-24T11:44:13;99434.72;;;20.36;49.65
74561;BME280;62979;55.720;37.606;2023-08-24T11:46:40;99430.78;;;20.42;49.48
74561;BME280;62979;55.720;37.606;2023-08-24T11:49:08;99439.72;;;20.53;49.92
74561;BME280;62979;55.720;37.606;2023-08-24T11:51:37;99427.06;;;20.44;49.69
74561;BME280;62979;55.720;37.606;2023-08-24T11:54:06;99424.19;;;20.35;49.84
74561;BME280;62979;55.720;37.606;2023-08-24T11:56:41;99431.00;;;20.39;50.06
74561;BME280;62979;55.720;37.606;2023-08-24T11:59:11;99432.59;;;20.41;50.00
74561;BME280;62979;55.720;37.606;2023-08-24T12:01:40;99434.94;;;20.46;49.61
74561;BME280;62979;55.720;37.606;2023-08-24T12:04:09;99421.22;;;20.39;49.92
74561;BME280;62979;55.720;37.606;2023-08-24T12:06:38;99429.28;;;20.38;49.98
74561;BME280;62979;55.720;37.606;2023-08-24T12:09:06;99430.66;;;20.43;49.97
74561;BME280;62979;55.720;37.606;2023-08-24T12:11:35;99432.06;;;20.49;48.76
74561;BME280;62979;55.720;37.606;2023-08-24T12:14:04;99438.72;;;20.55;49.65
74561;BME280;62979;55.720;37.606;2023-08-24T12:16:34;99434.81;;;20.60;49.00
74561;BME280;62979;55.720;37.606;2023-08-24T12:19:02;99432.69;;;20.65;48.51
74561;BME280;62979;55.720;37.606;2023-08-24T12:21:33;99427.06;;;20.70;48.42
74561;BME280;62979;55.720;37.606;2023-08-24T12:24:03;99430.59;;;20.70;48.22
74561;BME280;62979;55.720;37.606;2023-08-24T12:26:32;99430.34;;;20.73;48.06
74561;BME280;62979;55.720;37.606;2023-08-24T12:29:01;99432.88;;;20.75;47.42
74561;BME280;62979;55.720;37.606;2023-08-24T12:31:29;99426.94;;;20.84;48.27
74561;BME280;62979;55.720;37.606;2023-08-24T12:34:00;99425.66;;;20.77;47.70
74561;BME280;62979;55.720;37.606;2023-08-24T12:36:29;99436.63;;;20.85;47.49
74561;BME280;62979;55.720;37.606;2023-08-24T12:38:57;99432.75;;;20.89;47.38
74561;BME280;62979;55.720;37.606;2023-08-24T12:41:26;99435.41;;;20.89;47.23
74561;BME280;62979;55.720;37.606;2023-08-24T12:43:53;99425.84;;;21.00;47.14
74561;BME280;62979;55.720;37.606;2023-08-24T12:46:20;99435.00;;;20.95;46.66
74561;BME280;62979;55.720;37.606;2023-08-24T12:48:47;99433.28;;;20.94;46.42
74561;BME280;62979;55.720;37.606;2023-08-24T12:51:14;99432.53;;;21.05;46.21
74561;BME280;62979;55.720;37.606;2023-08-24T12:53:41;99438.53;;;21.20;46.29
74561;BME280;62979;55.720;37.606;2023-08-24T12:56:08;99429.72;;;21.20;46.15